EGDM - Boscombe Down
Distance from station: E 5mi, 14km
Updated: 12/14/2017 11:50am
Mostly Cloudy
Mostly Cloudy
 Wind from SW
Wind: SW 9 mph , 15 km/h
Temperature: 37°F , 3°C
Wind Chill: 30°F , -1°C
Dew Point: 36°F , 2°C
Humidity: 93%
Barometer: 29.21 inHg , 989 hPa
Clouds: Mostly Cloudy
Visibility: 6 miles , 10 km
Cloud details: Few Clouds 3900 ft
Mostly Cloudy 8000 ft
2017/12/14 19:50 EGDM 141950Z AUTO 23008KT 9999 FEW039/// BKN080/// 03/02 Q0989